Time;durP1;ratioP1;P1;durP2;ratioP2;P2;SDS_P1;SDS_P2;PMS_P1;PMS_P2;Temp;Humidity;BMP_temperature;BMP_pressure;BME280_temperature;BME280_humidity;BME280_pressure;Samples;Min_cycle;Max_cycle;Signal;HPM_P1;HPM_P2
2022/02/20 00:01:56;;;;;;;5.70;2.00;;;230.60;2252.80;;;;;;5080808;28;20129;-72
2022/02/20 00:04:21;;;;;;;2.17;1.73;;;230.60;2252.80;;;;;;5077046;28;20094;-71
2022/02/20 00:06:53;;;;;;;3.75;1.30;;;230.60;2252.80;;;;;;5077183;28;20055;-73
2022/02/20 00:09:19;;;;;;;2.33;1.30;;;230.70;2252.80;;;;;;5084690;28;20016;-72
2022/02/20 00:11:45;;;;;;;2.95;1.52;;;230.70;2252.80;;;;;;5093871;28;20038;-72
2022/02/20 00:14:11;;;;;;;1.65;1.10;;;230.70;2252.80;;;;;;5075250;28;20360;-73
2022/02/20 00:16:37;;;;;;;4.07;1.40;;;230.70;2252.80;;;;;;5077027;28;20487;-71
2022/02/20 00:19:03;;;;;;;3.28;1.85;;;230.70;2252.80;;;;;;5072585;28;20076;-73
2022/02/20 00:21:34;;;;;;;4.53;1.40;;;230.70;2252.80;;;;;;5075307;28;20458;-70
2022/02/20 00:24:00;;;;;;;3.08;1.77;;;230.60;2252.80;;;;;;5074647;28;20025;-71
2022/02/20 00:26:26;;;;;;;4.20;1.40;;;230.60;2252.80;;;;;;5075225;28;20102;-70
2022/02/20 00:28:52;;;;;;;2.15;1.48;;;230.60;2252.80;;;;;;5074420;28;20052;-71
2022/02/20 00:31:18;;;;;;;3.72;1.30;;;230.60;2252.80;;;;;;5075762;28;20489;-70
2022/02/20 00:33:44;;;;;;;1.85;1.20;;;230.60;2252.80;;;;;;5075849;28;20074;-69
2022/02/20 00:36:24;;;;;;;7.47;1.65;;;230.60;2252.80;;;;;;5094301;27;20727;-70
2022/02/20 00:38:50;;;;;;;4.78;1.08;;;230.60;2252.80;;;;;;5099392;28;20029;-70
2022/02/20 00:41:15;;;;;;;1.80;1.10;;;230.60;2252.80;;;;;;5080827;28;20020;-70
2022/02/20 00:43:41;;;;;;;4.53;1.30;;;230.60;2252.80;;;;;;5082318;28;20017;-70
2022/02/20 00:46:07;;;;;;;5.80;1.88;;;230.60;2252.80;;;;;;5079557;28;20028;-70
2022/02/20 00:48:33;;;;;;;9.57;2.28;;;230.60;2252.80;;;;;;5077602;28;20107;-69
2022/02/20 00:50:58;;;;;;;3.33;1.60;;;230.50;2252.80;;;;;;5077974;28;20098;-70
2022/02/20 00:53:26;;;;;;;4.22;1.50;;;230.50;2252.80;;;;;;5082656;28;20070;-70
2022/02/20 00:55:52;;;;;;;3.33;1.50;;;230.50;2252.80;;;;;;5083604;28;20029;-69
2022/02/20 00:58:18;;;;;;;4.75;1.25;;;230.50;2252.80;;;;;;5083725;28;20065;-70
2022/02/20 01:00:44;;;;;;;1.92;1.30;;;230.50;2252.80;;;;;;5080137;28;20479;-70
2022/02/20 01:03:09;;;;;;;4.25;1.00;;;230.40;2252.80;;;;;;5081250;28;20031;-70
2022/02/20 01:05:35;;;;;;;3.75;1.30;;;230.40;2252.80;;;;;;5081138;28;20044;-69
2022/02/20 01:08:01;;;;;;;2.42;1.05;;;205.70;2252.80;;;;;;5083072;28;20032;-69
2022/02/20 01:10:27;;;;;;;2.90;1.17;;;230.40;2252.80;;;;;;5080717;28;20387;-69
2022/02/20 01:12:52;;;;;;;5.68;1.63;;;205.70;2252.80;;;;;;5081723;28;20095;-69
2022/02/20 01:15:18;;;;;;;2.42;1.25;;;205.70;2252.80;;;;;;5082195;28;20033;-70
2022/02/20 01:17:44;;;;;;;3.60;1.13;;;205.70;2252.80;;;;;;5084230;28;20025;-70
2022/02/20 01:20:11;;;;;;;2.95;1.30;;;205.60;2252.80;;;;;;5084206;28;20978;-69
2022/02/20 01:22:37;;;;;;;3.85;1.35;;;205.50;2252.80;;;;;;5076676;28;20032;-70
2022/02/20 01:25:03;;;;;;;5.60;1.50;;;205.40;2252.80;;;;;;5083125;28;20024;-70
2022/02/20 01:27:29;;;;;;;3.95;1.80;;;205.40;2252.80;;;;;;5078808;28;20020;-70
2022/02/20 01:29:55;;;;;;;3.95;1.60;;;205.30;2252.80;;;;;;5084960;28;20047;-71
2022/02/20 01:32:21;;;;;;;2.15;1.65;;;205.30;2252.80;;;;;;5081946;28;20395;-71
2022/02/20 01:34:47;;;;;;;8.48;2.72;;;205.30;2252.80;;;;;;5080122;28;20051;-70
2022/02/20 01:37:12;;;;;;;4.95;1.60;;;205.00;2252.80;;;;;;5075754;28;20098;-70
2022/02/20 01:39:38;;;;;;;2.88;1.30;;;205.10;2252.80;;;;;;5080496;28;20032;-70
2022/02/20 01:42:04;;;;;;;2.53;1.98;;;205.00;2252.80;;;;;;5083894;28;20023;-70
2022/02/20 01:44:32;;;;;;;3.10;2.03;;;204.90;2252.80;;;;;;5072677;28;20024;-70
2022/02/20 01:47:16;;;;;;;6.75;1.63;;;204.90;2252.80;;;;;;5076055;28;20039;-70
2022/02/20 01:49:43;;;;;;;4.43;1.92;;;180.10;2252.80;;;;;;5053796;28;20025;-70
2022/02/20 01:52:10;;;;;;;3.00;1.60;;;180.10;2252.80;;;;;;5071441;28;20057;-70
2022/02/20 01:54:35;;;;;;;4.85;1.77;;;180.10;2252.80;;;;;;5069747;28;20031;-70
2022/02/20 01:57:02;;;;;;;3.97;2.30;;;180.10;2252.80;;;;;;5068344;28;20008;-70
2022/02/20 01:59:28;;;;;;;3.85;1.88;;;180.10;2252.80;;;;;;5065801;28;20093;-69
2022/02/20 02:01:55;;;;;;;2.88;1.80;;;180.10;2252.80;;;;;;5065724;28;20487;-70
2022/02/20 02:04:21;;;;;;;3.47;2.10;;;204.80;2252.80;;;;;;5060950;28;20037;-71
2022/02/20 02:06:48;;;;;;;3.00;2.45;;;204.80;2252.80;;;;;;5072030;28;20090;-71
2022/02/20 02:09:16;;;;;;;5.82;2.28;;;204.80;2252.80;;;;;;5066844;28;20056;-70
2022/02/20 02:11:44;;;;;;;6.65;1.88;;;204.80;2252.80;;;;;;5066111;28;20468;-70
2022/02/20 02:14:10;;;;;;;5.85;2.45;;;204.90;2252.80;;;;;;5060219;28;20387;-70
2022/02/20 02:16:36;;;;;;;4.72;2.00;;;204.90;2252.80;;;;;;5072798;28;20030;-70
2022/02/20 02:19:03;;;;;;;9.60;2.55;;;205.00;2252.80;;;;;;5071955;28;20020;-70
2022/02/20 02:21:29;;;;;;;4.13;2.13;;;204.90;2252.80;;;;;;5073003;28;20021;-70
2022/02/20 02:23:54;;;;;;;4.68;1.85;;;204.80;2252.80;;;;;;5059143;28;20082;-70
2022/02/20 02:26:20;;;;;;;10.80;2.53;;;204.90;2252.80;;;;;;5059692;28;20037;-69
2022/02/20 02:28:46;;;;;;;5.05;2.40;;;204.90;2252.80;;;;;;5059224;28;20040;-70
2022/02/20 02:31:13;;;;;;;4.00;2.33;;;204.80;2252.80;;;;;;5067472;28;20100;-70
2022/02/20 02:33:39;;;;;;;6.70;3.53;;;204.80;2252.80;;;;;;5058129;28;20020;-70
2022/02/20 02:36:08;;;;;;;7.45;2.63;;;204.80;2252.80;;;;;;5061367;28;20095;-69
2022/02/20 02:38:34;;;;;;;8.57;3.15;;;180.00;2252.80;;;;;;5069630;28;20078;-70
2022/02/20 02:41:04;;;;;;;7.05;3.28;;;180.00;2252.80;;;;;;5064519;28;20020;-70
2022/02/20 02:43:30;;;;;;;13.05;3.45;;;180.00;2252.80;;;;;;5064407;28;20482;-70
2022/02/20 02:45:56;;;;;;;5.72;2.78;;;180.00;2252.80;;;;;;5060243;28;20029;-69
2022/02/20 02:48:22;;;;;;;5.13;2.85;;;180.00;2252.80;;;;;;5055172;28;20040;-70
2022/02/20 02:50:48;;;;;;;5.90;3.53;;;180.10;2252.80;;;;;;5065886;28;20028;-70
2022/02/20 02:53:15;;;;;;;14.20;6.35;;;204.80;2252.80;;;;;;5061859;28;20122;-70
2022/02/20 02:55:48;;;;;;;9.20;4.10;;;180.10;2252.80;;;;;;5062384;28;20500;-69
2022/02/20 02:58:22;;;;;;;10.80;4.93;;;204.80;2252.80;;;;;;5071054;28;20791;-70
2022/02/20 03:00:48;;;;;;;8.35;4.70;;;179.90;2252.80;;;;;;5055652;28;20032;-69
2022/02/20 03:03:14;;;;;;;17.27;8.93;;;179.90;2252.80;;;;;;5057185;28;20510;-69
2022/02/20 03:05:40;;;;;;;20.08;9.52;;;179.80;2252.80;;;;;;5065209;28;20041;-69
2022/02/20 03:08:06;;;;;;;21.20;10.05;;;179.70;2252.80;;;;;;5064840;28;20480;-69
2022/02/20 03:10:32;;;;;;;15.05;6.35;;;179.80;2252.80;;;;;;5054854;28;20037;-69
2022/02/20 03:12:58;;;;;;;13.48;4.93;;;179.90;2252.80;;;;;;5058593;28;20643;-69
2022/02/20 03:15:24;;;;;;;8.68;3.90;;;180.00;2252.80;;;;;;5052051;28;20116;-70
2022/02/20 03:17:49;;;;;;;9.70;4.10;;;179.90;2252.80;;;;;;5061396;28;20048;-70
2022/02/20 03:20:15;;;;;;;13.25;5.60;;;180.00;2252.80;;;;;;5067650;28;20032;-69
2022/02/20 03:22:41;;;;;;;9.43;5.05;;;179.80;2252.80;;;;;;5051671;28;20021;-71
2022/02/20 03:25:07;;;;;;;9.93;4.32;;;179.70;2252.80;;;;;;5060768;28;20025;-71
2022/02/20 03:27:34;;;;;;;10.15;5.35;;;179.70;2252.80;;;;;;5057109;28;20025;-71
2022/02/20 03:29:59;;;;;;;12.23;5.57;;;179.70;2252.80;;;;;;5066398;28;20058;-72
2022/02/20 03:32:25;;;;;;;11.88;7.25;;;179.70;2099.20;;;;;;5070087;28;20105;-71
2022/02/20 03:34:51;;;;;;;11.75;6.05;;;179.70;2073.60;;;;;;5057989;28;20379;-71
2022/02/20 03:37:17;;;;;;;15.35;10.38;;;179.80;1971.20;;;;;;5064960;28;20039;-71
2022/02/20 03:39:43;;;;;;;20.88;14.00;;;179.90;2252.80;;;;;;5062700;28;20036;-71
2022/02/20 03:42:09;;;;;;;27.30;16.42;;;179.90;2252.80;;;;;;5064406;28;20021;-70
2022/02/20 03:44:35;;;;;;;23.92;14.93;;;179.90;2252.80;;;;;;5057932;28;20116;-70
2022/02/20 03:47:01;;;;;;;25.73;15.13;;;179.90;2252.80;;;;;;5067145;28;20044;-71
2022/02/20 03:49:26;;;;;;;19.23;12.85;;;179.80;2252.80;;;;;;5069715;28;20024;-71
2022/02/20 03:51:52;;;;;;;20.88;11.48;;;179.70;2176.00;;;;;;5070387;28;20052;-70
2022/02/20 03:54:18;;;;;;;13.05;8.32;;;179.70;2252.80;;;;;;5058451;28;20044;-70
2022/02/20 03:56:43;;;;;;;17.55;9.23;;;179.70;2099.20;;;;;;5060108;28;20472;-71
2022/02/20 03:59:09;;;;;;;15.60;9.02;;;179.80;2252.80;;;;;;5064143;28;20020;-71
2022/02/20 04:01:35;;;;;;;16.77;10.07;;;179.80;2252.80;;;;;;5063493;28;20052;-70
2022/02/20 04:04:01;;;;;;;13.65;9.02;;;179.80;2252.80;;;;;;5060278;28;20029;-71
2022/02/20 04:06:26;;;;;;;15.75;8.27;;;179.80;2252.80;;;;;;5056846;28;20061;-70
2022/02/20 04:08:52;;;;;;;14.38;8.27;;;179.80;2252.80;;;;;;5051279;28;20021;-70
2022/02/20 04:11:18;;;;;;;16.67;9.02;;;179.80;2252.80;;;;;;5051188;28;20025;-70
2022/02/20 04:13:43;;;;;;;38.42;17.27;;;179.80;2252.80;;;;;;5064574;28;20468;-70
2022/02/20 04:16:09;;;;;;;38.10;23.23;;;179.90;2252.80;;;;;;5064151;28;20020;-70
2022/02/20 04:18:35;;;;;;;31.63;19.23;;;179.90;2252.80;;;;;;5051127;28;20465;-70
2022/02/20 04:21:01;;;;;;;27.30;17.65;;;179.80;2252.80;;;;;;5050909;28;20104;-71
2022/02/20 04:23:30;;;;;;;35.45;20.48;;;179.70;2252.80;;;;;;5057630;28;20690;-72
2022/02/20 04:26:01;;;;;;;23.40;16.98;;;179.60;2252.80;;;;;;5066262;28;20478;-70
2022/02/20 04:28:28;;;;;;;35.47;23.42;;;179.50;2252.80;;;;;;5076789;28;20387;-71
2022/02/20 04:30:54;;;;;;;25.77;17.08;;;179.50;2252.80;;;;;;5066654;28;20037;-70
2022/02/20 04:33:20;;;;;;;29.83;18.40;;;179.40;2252.80;;;;;;5056155;28;20472;-70
2022/02/20 04:35:46;;;;;;;38.80;26.58;;;179.40;2252.80;;;;;;5056453;28;20106;-70
2022/02/20 04:38:11;;;;;;;38.17;25.42;;;179.40;2252.80;;;;;;5050523;28;20026;-71
2022/02/20 04:40:37;;;;;;;34.63;19.00;;;179.40;1868.80;;;;;;5061618;28;20021;-71
2022/02/20 04:43:03;;;;;;;34.75;19.25;;;179.40;2201.60;;;;;;5057415;28;20472;-71
2022/02/20 04:45:28;;;;;;;31.58;17.85;;;179.60;2252.80;;;;;;5057252;28;20029;-71
2022/02/20 04:47:54;;;;;;;29.13;15.65;;;179.60;2252.80;;;;;;5063682;28;20119;-71
2022/02/20 04:50:20;;;;;;;22.50;13.93;;;179.70;2252.80;;;;;;5069475;28;20029;-71
2022/02/20 04:52:46;;;;;;;19.38;13.15;;;179.60;2252.80;;;;;;5058356;28;20414;-71
2022/02/20 04:55:11;;;;;;;16.35;10.45;;;179.50;2252.80;;;;;;5066296;28;20082;-71
2022/02/20 04:57:39;;;;;;;14.18;10.35;;;179.40;2252.80;;;;;;5060229;28;20020;-70
2022/02/20 05:00:08;;;;;;;16.42;7.95;;;179.40;2048.00;;;;;;5063614;28;20028;-70
2022/02/20 05:02:34;;;;;;;12.73;6.45;;;179.60;2252.80;;;;;;5065117;28;20021;-71
2022/02/20 05:05:00;;;;;;;12.82;6.82;;;179.40;1920.00;;;;;;5056975;28;20041;-71
2022/02/20 05:07:26;;;;;;;9.80;6.15;;;179.40;2252.80;;;;;;5063058;28;20047;-70
2022/02/20 05:09:52;;;;;;;11.23;5.50;;;179.40;2252.80;;;;;;5068172;28;20032;-70
2022/02/20 05:12:18;;;;;;;10.20;4.85;;;179.40;2252.80;;;;;;5056767;28;20040;-71
2022/02/20 05:14:43;;;;;;;10.80;4.15;;;179.30;2252.80;;;;;;5053199;28;20021;-71
2022/02/20 05:17:11;;;;;;;6.20;3.97;;;179.30;2252.80;;;;;;5060645;28;20035;-71
2022/02/20 05:19:37;;;;;;;5.38;3.40;;;179.30;2252.80;;;;;;5069225;28;20106;-71
2022/02/20 05:22:03;;;;;;;7.75;3.25;;;179.20;2252.80;;;;;;5065559;28;20570;-71
2022/02/20 05:24:29;;;;;;;7.70;3.88;;;179.20;2252.80;;;;;;5067368;28;20135;-71
2022/02/20 05:26:55;;;;;;;9.95;5.38;;;179.30;2252.80;;;;;;5067345;28;20153;-70
2022/02/20 05:29:21;;;;;;;8.05;5.00;;;179.30;2252.80;;;;;;5067495;28;20483;-70
2022/02/20 05:31:46;;;;;;;8.27;3.67;;;179.30;2252.80;;;;;;5067141;28;20025;-70
2022/02/20 05:34:12;;;;;;;4.28;2.83;;;179.30;2252.80;;;;;;5066490;28;20059;-70
2022/02/20 05:36:38;;;;;;;5.07;2.38;;;179.30;2252.80;;;;;;5067013;28;20017;-71
2022/02/20 05:39:04;;;;;;;5.72;2.75;;;179.30;2252.80;;;;;;5058463;28;20025;-71
2022/02/20 05:41:30;;;;;;;6.18;3.08;;;179.30;2252.80;;;;;;5066501;28;20027;-70
2022/02/20 05:43:55;;;;;;;5.72;2.83;;;179.30;2252.80;;;;;;5067268;28;20032;-71
2022/02/20 05:46:21;;;;;;;6.68;3.35;;;179.30;2252.80;;;;;;5060479;28;20476;-71
2022/02/20 05:48:47;;;;;;;9.73;4.60;;;179.30;2252.80;;;;;;5053838;28;20039;-71
2022/02/20 05:51:13;;;;;;;8.38;3.53;;;179.30;2252.80;;;;;;5070354;28;20468;-71
2022/02/20 05:53:38;;;;;;;7.75;3.45;;;179.30;2252.80;;;;;;5059959;28;20024;-71
2022/02/20 05:56:05;;;;;;;9.65;3.80;;;179.30;2252.80;;;;;;5066964;28;20802;-71
2022/02/20 05:58:32;;;;;;;8.13;4.60;;;179.30;2252.80;;;;;;5060974;28;20435;-71
2022/02/20 06:00:59;;;;;;;8.18;3.50;;;179.30;2252.80;;;;;;5065594;28;20027;-72
2022/02/20 06:03:24;;;;;;;9.25;5.00;;;179.30;2252.80;;;;;;5066591;28;20445;-69
2022/02/20 06:05:50;;;;;;;12.88;4.88;;;179.20;2252.80;;;;;;5059484;28;20112;-70
2022/02/20 06:08:16;;;;;;;8.98;3.60;;;179.20;2252.80;;;;;;5057428;28;21108;-69
2022/02/20 06:10:42;;;;;;;6.63;2.83;;;179.20;2252.80;;;;;;5071951;28;20511;-69
2022/02/20 06:13:08;;;;;;;10.60;4.35;;;179.30;2252.80;;;;;;5072493;28;20730;-70
2022/02/20 06:15:33;;;;;;;9.13;4.20;;;179.30;2252.80;;;;;;5068896;28;20025;-70
2022/02/20 06:17:59;;;;;;;10.38;4.07;;;179.20;2252.80;;;;;;5062563;28;20486;-70
2022/02/20 06:20:25;;;;;;;5.32;4.05;;;154.50;2252.80;;;;;;5056528;28;20039;-70
2022/02/20 06:22:53;;;;;;;6.95;3.33;;;154.50;2252.80;;;;;;5061992;28;20025;-69
2022/02/20 06:25:19;;;;;;;10.35;4.63;;;179.20;2252.80;;;;;;5071918;28;20467;-70
2022/02/20 06:27:44;;;;;;;8.90;3.92;;;179.30;2252.80;;;;;;5072000;28;20060;-69
2022/02/20 06:30:10;;;;;;;8.65;4.65;;;179.30;2252.80;;;;;;5071893;28;20063;-70
2022/02/20 06:32:36;;;;;;;9.23;4.72;;;179.30;2252.80;;;;;;5070897;28;20044;-70
2022/02/20 06:35:02;;;;;;;11.85;4.65;;;179.20;2252.80;;;;;;5068741;28;20075;-70
2022/02/20 06:37:28;;;;;;;7.32;3.55;;;179.20;2252.80;;;;;;5066497;28;20082;-70
2022/02/20 06:39:53;;;;;;;9.65;4.28;;;179.20;2252.80;;;;;;5064546;28;20376;-71
2022/02/20 06:42:19;;;;;;;6.40;3.75;;;179.30;2252.80;;;;;;5058849;28;20021;-69
2022/02/20 06:44:45;;;;;;;5.55;2.83;;;179.30;2252.80;;;;;;5072185;28;20029;-70
2022/02/20 06:47:11;;;;;;;11.40;4.32;;;179.30;2252.80;;;;;;5071581;28;20365;-69
2022/02/20 06:49:37;;;;;;;8.10;3.47;;;179.30;2252.80;;;;;;5065682;28;20052;-70
2022/02/20 06:52:03;;;;;;;5.38;3.33;;;179.30;2252.80;;;;;;5054453;28;20025;-70
2022/02/20 06:54:29;;;;;;;11.18;4.47;;;179.40;2252.80;;;;;;5064976;28;20033;-70
2022/02/20 06:56:56;;;;;;;8.68;4.25;;;179.50;2252.80;;;;;;5071122;28;20047;-70
2022/02/20 06:59:22;;;;;;;9.80;5.18;;;179.50;1945.60;;;;;;5075411;28;20553;-70
2022/02/20 07:01:48;;;;;;;12.95;6.53;;;179.60;2252.80;;;;;;5056159;28;20167;-69
2022/02/20 07:04:15;;;;;;;14.30;6.07;;;179.50;2252.80;;;;;;5058096;28;20139;-69
2022/02/20 07:06:43;;;;;;;13.13;5.95;;;179.50;1894.40;;;;;;5071467;28;20091;-70
2022/02/20 07:09:10;;;;;;;11.18;6.45;;;179.50;1868.80;;;;;;5071246;28;20023;-69
2022/02/20 07:11:37;;;;;;;13.57;8.07;;;179.60;2252.80;;;;;;5067320;28;20025;-70
2022/02/20 07:14:03;;;;;;;12.15;8.07;;;179.60;2252.80;;;;;;5065077;28;20089;-70
2022/02/20 07:16:29;;;;;;;13.32;7.10;;;179.50;2252.80;;;;;;5058652;28;20025;-70
2022/02/20 07:18:55;;;;;;;9.05;5.40;;;179.60;1868.80;;;;;;5051889;28;20029;-70
2022/02/20 07:21:22;;;;;;;17.67;9.50;;;179.60;2022.40;;;;;;5051627;28;20024;-70
2022/02/20 07:23:48;;;;;;;16.02;9.32;;;179.70;2150.40;;;;;;5054406;28;20375;-69
2022/02/20 07:26:13;;;;;;;85.05;41.28;;;179.80;2252.80;;;;;;5066910;28;20041;-70
2022/02/20 07:28:39;;;;;;;98.25;44.88;;;179.90;1920.00;;;;;;5068333;28;20029;-70
2022/02/20 07:31:05;;;;;;;221.65;115.00;;;180.10;2252.80;;;;;;5068557;28;20036;-70
2022/02/20 07:33:30;;;;;;;44.70;27.25;;;204.80;2252.80;;;;;;5051415;28;20021;-69
2022/02/20 07:35:56;;;;;;;154.30;82.97;;;204.90;2252.80;;;;;;5057515;28;20053;-70
2022/02/20 07:38:22;;;;;;;52.78;30.02;;;204.90;2252.80;;;;;;5068632;28;20036;-70
2022/02/20 07:40:48;;;;;;;29.50;16.80;;;204.80;2252.80;;;;;;5051119;28;20033;-69
2022/02/20 07:43:13;;;;;;;24.83;18.33;;;204.80;2252.80;;;;;;5064600;28;20020;-70
2022/02/20 07:45:39;;;;;;;40.35;31.67;;;180.10;2252.80;;;;;;5050569;28;20087;-70
2022/02/20 07:48:05;;;;;;;16.02;11.55;;;180.10;2252.80;;;;;;5057807;28;20431;-70
2022/02/20 07:50:34;;;;;;;25.92;14.45;;;204.80;2252.80;;;;;;5057637;28;20115;-70
2022/02/20 07:53:02;;;;;;;16.48;8.27;;;204.90;2252.80;;;;;;5064130;28;20115;-70
2022/02/20 07:55:28;;;;;;;29.83;15.57;;;204.90;2252.80;;;;;;5070783;28;20483;-69
2022/02/20 07:57:54;;;;;;;19.00;14.50;;;204.90;2252.80;;;;;;5058993;28;20146;-71
2022/02/20 08:00:22;;;;;;;18.70;9.93;;;205.10;2252.80;;;;;;5052115;28;20502;-71
2022/02/20 08:02:48;;;;;;;9.63;5.38;;;205.10;2252.80;;;;;;5066017;28;20078;-71
2022/02/20 08:05:14;;;;;;;9.00;5.15;;;205.10;2252.80;;;;;;5060823;28;20101;-70
2022/02/20 08:07:40;;;;;;;10.23;5.70;;;205.10;2252.80;;;;;;5063089;28;20487;-71
2022/02/20 08:10:07;;;;;;;10.75;5.03;;;205.00;2252.80;;;;;;5064540;28;20081;-70
2022/02/20 08:12:33;;;;;;;7.00;5.13;;;205.00;2252.80;;;;;;5058837;28;20482;-71
2022/02/20 08:14:59;;;;;;;10.98;4.82;;;205.10;2252.80;;;;;;5066840;28;20032;-70
2022/02/20 08:17:25;;;;;;;8.20;5.38;;;205.10;2252.80;;;;;;5066253;28;20439;-70
2022/02/20 08:19:51;;;;;;;11.23;5.68;;;205.30;2252.80;;;;;;5066528;28;20058;-70
2022/02/20 08:22:18;;;;;;;9.45;4.95;;;205.40;2252.80;;;;;;5065174;28;20122;-71
2022/02/20 08:24:44;;;;;;;9.75;5.72;;;205.40;2252.80;;;;;;5061370;28;20029;-71
2022/02/20 08:27:11;;;;;;;5.40;3.58;;;205.50;2252.80;;;;;;5060649;28;20067;-71
2022/02/20 08:29:37;;;;;;;7.85;4.70;;;205.60;2252.80;;;;;;5065190;28;20027;-71
2022/02/20 08:32:06;;;;;;;7.50;4.05;;;230.40;2252.80;;;;;;5064755;28;20033;-71
2022/02/20 08:34:33;;;;;;;12.32;6.22;;;230.70;2252.80;;;;;;5060586;28;20091;-70
2022/02/20 08:37:00;;;;;;;11.25;5.40;;;231.30;2252.80;;;;;;5060039;28;20024;-70
2022/02/20 08:39:27;;;;;;;8.80;5.63;;;231.10;2252.80;;;;;;5059667;28;20025;-71
2022/02/20 08:41:53;;;;;;;12.45;7.90;;;231.00;2252.80;;;;;;5059202;28;20128;-71
2022/02/20 08:44:18;;;;;;;11.43;7.10;;;231.10;2252.80;;;;;;5067857;28;20120;-71
2022/02/20 08:46:44;;;;;;;9.40;4.20;;;231.30;2252.80;;;;;;5065433;28;20077;-71
2022/02/20 08:49:10;;;;;;;11.18;5.43;;;256.00;2252.80;;;;;;5057082;28;20132;-71
2022/02/20 08:51:36;;;;;;;11.73;5.47;;;231.20;2252.80;;;;;;5054251;28;20036;-71
2022/02/20 08:54:02;;;;;;;12.98;6.00;;;231.00;2252.80;;;;;;5053596;28;20021;-71
2022/02/20 08:56:27;;;;;;;16.80;7.22;;;231.00;2252.80;;;;;;5076024;28;20051;-71
2022/02/20 08:58:54;;;;;;;7.78;4.50;;;231.30;2252.80;;;;;;5063504;28;20025;-70
2022/02/20 09:01:20;;;;;;;9.27;4.18;;;256.10;2252.80;;;;;;5070280;28;20020;-70
2022/02/20 09:03:46;;;;;;;8.27;4.35;;;256.10;2252.80;;;;;;5067809;28;20021;-70
2022/02/20 09:06:12;;;;;;;8.65;4.57;;;256.10;2252.80;;;;;;5062465;28;20086;-70
2022/02/20 09:08:38;;;;;;;7.80;3.92;;;256.30;2252.80;;;;;;5060908;28;20108;-71
2022/02/20 09:11:04;;;;;;;10.30;5.55;;;256.30;2252.80;;;;;;5060164;28;20025;-71
2022/02/20 09:13:30;;;;;;;12.43;5.78;;;256.30;2252.80;;;;;;5067663;28;20037;-71
2022/02/20 09:15:56;;;;;;;12.65;5.50;;;256.20;2252.80;;;;;;5058415;28;20538;-71
2022/02/20 09:18:22;;;;;;;14.57;7.30;;;256.10;2252.80;;;;;;5066688;28;20020;-71
2022/02/20 09:20:47;;;;;;;13.27;7.63;;;256.00;2252.80;;;;;;5067518;28;20383;-71
2022/02/20 09:23:13;;;;;;;11.35;6.35;;;256.20;2252.80;;;;;;5065813;28;20037;-70
2022/02/20 09:25:40;;;;;;;8.80;5.63;;;256.40;2252.80;;;;;;5063018;28;20024;-71
2022/02/20 09:28:06;;;;;;;8.82;4.97;;;256.40;2252.80;;;;;;5059740;28;20029;-70
2022/02/20 09:30:32;;;;;;;9.32;5.75;;;256.30;2252.80;;;;;;5066875;28;20035;-70
2022/02/20 09:32:58;;;;;;;10.05;4.60;;;256.40;2252.80;;;;;;5063427;28;20514;-70
2022/02/20 09:35:25;;;;;;;7.28;4.22;;;256.50;2252.80;;;;;;5063312;28;20060;-70
2022/02/20 09:37:51;;;;;;;8.63;5.78;;;256.50;2252.80;;;;;;5066017;28;20032;-70
2022/02/20 09:40:17;;;;;;;11.40;5.65;;;256.60;2252.80;;;;;;5062182;28;20021;-70
2022/02/20 09:42:44;;;;;;;10.05;5.40;;;256.70;2252.80;;;;;;5062386;28;20021;-70
2022/02/20 09:45:10;;;;;;;8.55;4.55;;;256.70;2252.80;;;;;;5063253;28;20031;-71
2022/02/20 09:47:39;;;;;;;9.88;5.43;;;256.60;2252.80;;;;;;5056863;28;20491;-70
2022/02/20 09:50:06;;;;;;;23.23;12.98;;;256.50;2252.80;;;;;;5061648;28;20064;-70
2022/02/20 09:52:32;;;;;;;12.88;6.40;;;256.50;2252.80;;;;;;5065283;28;20375;-70
2022/02/20 09:54:58;;;;;;;29.52;15.30;;;281.90;2278.40;;;;;;5059172;28;20034;-70
2022/02/20 09:57:24;;;;;;;53.88;29.00;;;281.90;2278.40;;;;;;5069052;28;20029;-70
2022/02/20 09:59:49;;;;;;;13.50;7.03;;;282.10;2278.40;;;;;;5066832;28;20021;-71
2022/02/20 10:02:18;;;;;;;10.98;5.82;;;282.00;2278.40;;;;;;5059418;28;20032;-70
2022/02/20 10:04:51;;;;;;;24.95;12.95;;;282.30;2278.40;;;;;;5057900;28;20030;-70
2022/02/20 10:07:27;;;;;;;10.45;5.10;;;307.20;2304.00;;;;;;5060700;28;20796;-70
2022/02/20 10:09:54;;;;;;;10.57;5.95;;;282.50;2278.40;;;;;;5060628;28;20071;-71
2022/02/20 10:12:25;;;;;;;12.55;5.80;;;282.50;2278.40;;;;;;5058603;28;20037;-71
2022/02/20 10:14:51;;;;;;;27.95;11.77;;;307.20;2304.00;;;;;;5067682;28;20105;-71
2022/02/20 10:17:19;;;;;;;10.18;4.93;;;307.50;2304.00;;;;;;5066826;28;20044;-71
2022/02/20 10:19:52;;;;;;;10.10;4.32;;;307.60;2304.00;;;;;;5064096;28;20048;-71
2022/02/20 10:22:29;;;;;;;14.90;6.03;;;307.60;2304.00;;;;;;5063215;28;20017;-71
2022/02/20 10:25:11;;;;;;;26.77;10.20;;;307.70;2304.00;;;;;;5067552;28;20040;-70
2022/02/20 10:27:52;;;;;;;13.27;7.28;;;308.00;2304.00;;;;;;5061980;28;20028;-70
2022/02/20 10:30:22;;;;;;;108.30;53.83;;;332.80;2329.60;;;;;;5067523;28;20036;-71
2022/02/20 10:33:15;;;;;;;77.97;38.63;;;333.00;2329.60;;;;;;5084981;28;20411;-71
2022/02/20 10:35:49;;;;;;;34.97;19.88;;;333.70;2329.60;;;;;;5066766;28;20098;-71
2022/02/20 10:38:20;;;;;;;68.53;33.45;;;358.70;2329.60;;;;;;5061518;28;20053;-71
2022/02/20 10:40:54;;;;;;;41.95;23.65;;;359.10;2329.60;;;;;;5058504;28;20025;-71
2022/02/20 10:43:27;;;;;;;22.65;11.90;;;384.00;2329.60;;;;;;5065878;28;20095;-71
2022/02/20 10:46:11;;;;;;;9.20;5.97;;;384.30;2329.60;;;;;;5060552;28;20021;-71
2022/02/20 10:48:42;;;;;;;17.55;10.60;;;384.90;2329.60;;;;;;5065014;28;20017;-71
2022/02/20 10:51:08;;;;;;;9.85;5.35;;;409.90;2355.20;;;;;;5065353;28;20016;-71
2022/02/20 10:53:34;;;;;;;24.55;13.57;;;435.50;2355.20;;;;;;5059889;28;20042;-71
2022/02/20 10:56:00;;;;;;;18.15;10.38;;;436.00;2355.20;;;;;;5059906;28;20025;-71
2022/02/20 10:58:29;;;;;;;15.60;6.07;;;435.90;2355.20;;;;;;5068254;28;20590;-72
2022/02/20 11:00:56;;;;;;;8.63;4.28;;;435.20;2355.20;;;;;;5058911;28;20091;-72
2022/02/20 11:03:24;;;;;;;10.15;4.32;;;435.90;2355.20;;;;;;5059073;28;20382;-72
2022/02/20 11:05:51;;;;;;;8.63;3.58;;;435.50;2355.20;;;;;;5070023;28;20120;-72
2022/02/20 11:08:22;;;;;;;5.03;3.13;;;410.40;2355.20;;;;;;5065985;28;20053;-72
2022/02/20 11:10:48;;;;;;;8.32;4.03;;;435.60;2355.20;;;;;;5060626;28;20096;-72
2022/02/20 11:13:16;;;;;;;10.57;5.40;;;435.50;2355.20;;;;;;5066193;28;20036;-72
2022/02/20 11:15:43;;;;;;;8.50;4.78;;;435.70;2355.20;;;;;;5069681;28;20036;-72
2022/02/20 11:18:11;;;;;;;6.65;3.70;;;436.10;2355.20;;;;;;5069163;28;20107;-72
2022/02/20 11:20:45;;;;;;;10.00;4.20;;;436.10;2355.20;;;;;;5059079;28;20029;-72
2022/02/20 11:23:12;;;;;;;33.78;7.18;;;410.20;2355.20;;;;;;5061780;28;20021;-72
2022/02/20 11:25:41;;;;;;;11.55;3.40;;;409.70;2355.20;;;;;;5063814;28;20440;-72
2022/02/20 11:28:07;;;;;;;5.07;2.88;;;435.20;2355.20;;;;;;5055754;28;20494;-72
2022/02/20 11:30:35;;;;;;;5.70;2.78;;;435.50;2355.20;;;;;;5067710;28;20059;-72
2022/02/20 11:33:11;;;;;;;9.27;5.15;;;461.20;2150.40;;;;;;5081229;28;20021;-72
2022/02/20 11:35:43;;;;;;;8.27;3.63;;;461.00;2073.60;;;;;;5062941;28;20075;-72
2022/02/20 11:38:25;;;;;;;7.78;3.47;;;461.30;1996.80;;;;;;5068801;28;20021;-71
2022/02/20 11:41:02;;;;;;;9.32;4.18;;;461.40;1971.20;;;;;;5067627;28;20074;-71
2022/02/20 11:43:45;;;;;;;7.82;3.55;;;486.70;1868.80;;;;;;5065416;28;20056;-71
2022/02/20 11:46:30;;;;;;;5.30;2.47;;;486.80;1843.20;;;;;;5062612;28;20042;-71
2022/02/20 11:49:09;;;;;;;12.38;5.68;;;487.20;1766.40;;;;;;5066693;28;20024;-71
2022/02/20 11:51:35;;;;;;;15.05;7.35;;;487.20;1689.60;;;;;;5062558;28;20042;-73
2022/02/20 11:54:19;;;;;;;11.63;4.97;;;487.30;1689.60;;;;;;5065380;28;20472;-72
2022/02/20 11:57:25;;;;;;;6.30;3.58;;;461.70;1766.40;;;;;;5080603;28;20041;-71
2022/02/20 12:00:13;;;;;;;5.00;2.78;;;486.40;1740.80;;;;;;5063812;28;20337;-71
2022/02/20 12:03:03;;;;;;;4.30;2.90;;;486.70;1689.60;;;;;;5064739;28;20017;-71
2022/02/20 12:05:29;;;;;;;8.05;3.25;;;487.00;1689.60;;;;;;5065203;28;20028;-71
2022/02/20 12:07:55;;;;;;;6.05;2.85;;;461.50;1792.00;;;;;;5067288;28;20024;-72
2022/02/20 12:10:21;;;;;;;4.40;2.42;;;487.00;1664.00;;;;;;5063093;28;20057;-71
2022/02/20 12:12:48;;;;;;;5.45;2.90;;;487.00;1689.60;;;;;;5067512;28;20056;-71